createdAt,value
2022-10-22T00:03:05.040Z,101895.16
2022-10-22T00:07:58.237Z,101949.94
2022-10-22T00:12:51.310Z,101907.78
2022-10-22T00:17:45.797Z,101927.88
2022-10-22T00:22:39.483Z,101923.72
2022-10-22T00:27:32.607Z,101880.13
2022-10-22T00:32:25.749Z,101799.31
2022-10-22T00:37:20.284Z,101891.53
2022-10-22T00:42:24.406Z,101917.38
2022-10-22T00:47:19.020Z,101875.72
2022-10-22T00:52:13.008Z,101894.38
2022-10-22T00:57:07.640Z,101904.38
2022-10-22T01:02:00.923Z,101899.31
2022-10-22T01:06:54.011Z,101844.22
2022-10-22T01:12:00.394Z,101877.13
2022-10-22T01:17:01.691Z,101881.47
2022-10-22T01:22:00.087Z,101885.16
2022-10-22T01:27:12.360Z,101865.41
2022-10-22T01:32:12.751Z,101886.78
2022-10-22T01:37:06.041Z,101851.94
2022-10-22T01:41:59.641Z,101884.59
2022-10-22T01:46:59.045Z,101887.06
2022-10-22T01:52:07.212Z,101840.38
2022-10-22T01:57:09.605Z,101879.97
2022-10-22T02:02:14.197Z,101842.69
2022-10-22T02:07:13.162Z,101881.22
2022-10-22T02:12:09.672Z,101890.34
2022-10-22T02:17:03.306Z,101838.50
2022-10-22T02:21:56.745Z,101872.09
2022-10-22T02:26:56.140Z,101837.84
2022-10-22T02:31:52.230Z,101877.06
2022-10-22T02:36:50.333Z,101815.59
2022-10-22T02:41:44.175Z,101856.41
2022-10-22T02:46:39.031Z,101837.47
2022-10-22T02:51:32.202Z,101853.13
2022-10-22T02:56:25.331Z,101849.22
2022-10-22T03:01:18.593Z,101843.47
2022-10-22T03:06:13.307Z,101847.28
2022-10-22T03:11:06.682Z,101835.69
2022-10-22T03:15:59.809Z,101844.34
2022-10-22T03:21:03.169Z,101839.25
2022-10-22T03:30:55.690Z,101827.84
2022-10-22T03:35:49.646Z,101807.47
2022-10-22T03:40:45.518Z,101837.84
2022-10-22T03:45:40.197Z,101815.53
2022-10-22T03:50:33.487Z,101830.84
2022-10-22T03:55:26.845Z,101834.16
2022-10-22T04:00:20.331Z,101856.47
2022-10-22T04:10:13.032Z,101808.88
2022-10-22T04:15:07.255Z,101840.69
2022-10-22T04:20:00.350Z,101813.28
2022-10-22T04:24:54.921Z,101797.16
2022-10-22T04:29:48.155Z,101826.69
2022-10-22T04:34:41.383Z,101830.47
2022-10-22T04:39:34.517Z,101775.88
2022-10-22T04:44:28.962Z,101841.59
2022-10-22T04:49:22.133Z,101643.53
2022-10-22T04:54:15.359Z,101828.72
2022-10-22T04:59:10.189Z,101850.88
2022-10-22T05:04:06.021Z,101764.53
2022-10-22T05:09:01.657Z,101849.47
2022-10-22T05:13:56.464Z,101845.91
2022-10-22T05:18:49.788Z,101852.78
2022-10-22T05:23:45.302Z,101855.78
2022-10-22T05:28:38.653Z,101862.31
2022-10-22T05:33:33.266Z,101855.44
2022-10-22T05:38:26.762Z,101863.13
2022-10-22T05:43:21.228Z,101882.38
2022-10-22T05:48:14.326Z,101853.81
2022-10-22T05:53:07.480Z,101837.78
2022-10-22T05:58:00.612Z,101857.81
2022-10-22T06:02:55.192Z,101785.81
2022-10-22T06:07:48.736Z,101833.22
2022-10-22T06:12:42.186Z,101854.38
2022-10-22T06:17:35.507Z,101829.94
2022-10-22T06:22:30.013Z,101842.56
2022-10-22T06:27:23.107Z,101834.84
2022-10-22T06:32:16.231Z,101805.81
2022-10-22T06:37:11.259Z,101839.88
2022-10-22T06:42:05.949Z,101828.34
2022-10-22T06:47:00.732Z,101827.34
2022-10-22T06:51:54.929Z,101812.53
2022-10-22T06:56:48.374Z,101786.44
2022-10-22T07:01:43.476Z,101798.25
2022-10-22T07:06:36.540Z,101794.16
2022-10-22T07:11:31.176Z,101797.56
2022-10-22T07:16:28.140Z,101803.09
2022-10-22T07:21:26.818Z,101804.03
2022-10-22T07:26:21.367Z,101787.84
2022-10-22T07:31:18.893Z,101748.63
2022-10-22T07:36:17.860Z,101749.81
2022-10-22T07:41:12.877Z,101753.09
2022-10-22T07:46:06.846Z,101757.16
2022-10-22T07:51:00.028Z,101751.66
2022-10-22T07:55:53.463Z,101739.78
2022-10-22T08:00:48.681Z,101789.69
2022-10-22T08:05:44.067Z,101790.59
2022-10-22T08:10:37.329Z,101790.72
2022-10-22T08:15:31.310Z,101780.94
2022-10-22T08:20:25.957Z,101703.19
2022-10-22T08:25:21.587Z,101786.19
2022-10-22T08:30:15.296Z,101799.25
2022-10-22T08:35:10.386Z,101792.75
2022-10-22T08:40:07.964Z,101790.44
2022-10-22T08:45:11.465Z,101771.56
2022-10-22T08:50:17.742Z,101779.03
2022-10-22T08:55:15.548Z,101767.59
2022-10-22T09:00:14.996Z,101606.72
2022-10-22T09:05:22.767Z,101774.00
2022-10-22T09:10:18.399Z,101776.72
2022-10-22T09:15:15.775Z,101732.75
2022-10-22T09:20:18.340Z,101748.56
2022-10-22T09:25:22.099Z,101780.69
2022-10-22T09:30:18.692Z,101749.56
2022-10-22T09:35:19.191Z,101774.63
2022-10-22T09:40:16.114Z,101749.66
2022-10-22T09:45:20.271Z,101717.88
2022-10-22T09:50:28.418Z,101760.50
2022-10-22T09:55:21.565Z,101739.19
2022-10-22T10:00:21.209Z,101750.34
2022-10-22T10:05:20.618Z,101730.16
2022-10-22T10:10:35.132Z,101708.16
2022-10-22T10:15:40.349Z,101714.66
2022-10-22T10:20:43.023Z,101718.22
2022-10-22T10:25:49.305Z,101647.66
2022-10-22T10:30:52.914Z,101694.31
2022-10-22T10:35:55.508Z,101710.81
2022-10-22T10:40:52.622Z,101694.53
2022-10-22T10:46:00.507Z,101667.41
2022-10-22T10:51:07.726Z,101643.03
2022-10-22T10:56:07.439Z,101658.47
2022-10-22T11:01:11.370Z,101629.88
2022-10-22T11:06:08.785Z,101641.81
2022-10-22T11:11:07.958Z,101585.09
2022-10-22T11:16:11.781Z,101556.72
2022-10-22T11:21:24.120Z,101611.66
2022-10-22T11:26:26.592Z,101613.97
2022-10-22T11:31:25.085Z,101597.88
2022-10-22T11:36:23.163Z,101586.47
2022-10-22T11:41:20.258Z,101561.03
2022-10-22T11:46:31.293Z,101565.06
2022-10-22T11:51:36.095Z,101428.13
2022-10-22T11:56:38.849Z,101530.72
2022-10-22T12:01:42.984Z,101509.91
2022-10-22T12:06:54.864Z,101532.50
2022-10-22T12:11:51.353Z,101499.72
2022-10-22T12:16:56.289Z,101469.41
2022-10-22T12:21:57.453Z,101499.41
2022-10-22T12:26:52.785Z,101496.19
2022-10-22T12:31:48.595Z,101510.75
2022-10-22T12:36:41.821Z,101502.72
2022-10-22T12:41:36.527Z,101459.63
2022-10-22T12:46:33.238Z,101453.88
2022-10-22T12:51:28.745Z,101477.09
2022-10-22T12:56:25.311Z,101460.22
2022-10-22T13:01:19.574Z,101441.56
2022-10-22T13:06:14.671Z,101408.63
2022-10-22T13:11:12.476Z,101422.16
2022-10-22T13:16:30.300Z,101430.63
2022-10-22T13:21:27.591Z,101433.16
2022-10-22T13:26:24.763Z,101421.19
2022-10-22T13:31:20.534Z,101450.91
2022-10-22T13:36:17.352Z,101415.31
2022-10-22T13:41:22.653Z,101455.53
2022-10-22T13:46:15.995Z,101374.59
2022-10-22T13:51:16.326Z,101445.13
2022-10-22T13:56:15.530Z,101430.34
2022-10-22T14:01:20.687Z,101397.72
2022-10-22T14:06:15.795Z,101378.84
2022-10-22T14:11:12.467Z,101381.63
2022-10-22T14:16:07.941Z,101435.41
2022-10-22T14:21:07.474Z,101406.38
2022-10-22T14:26:01.899Z,101412.59
2022-10-22T14:30:55.876Z,101420.25
2022-10-22T14:35:49.446Z,101395.59
2022-10-22T14:40:44.918Z,101420.50
2022-10-22T14:45:38.159Z,101423.25
2022-10-22T14:50:31.367Z,101406.56
2022-10-22T14:55:26.299Z,101406.63
2022-10-22T15:00:22.094Z,101376.44
2022-10-22T15:05:17.553Z,101378.09
2022-10-22T15:10:11.712Z,101412.44
2022-10-22T15:15:05.525Z,101404.81
2022-10-22T15:20:04.094Z,101406.16
2022-10-22T15:24:57.254Z,101411.91
2022-10-22T15:29:50.449Z,101402.94
2022-10-22T15:34:43.742Z,101391.66
2022-10-22T15:39:44.073Z,101430.59
2022-10-22T15:44:37.537Z,101421.28
2022-10-22T15:49:30.853Z,101429.53
2022-10-22T15:54:28.253Z,101387.34
2022-10-22T15:59:23.161Z,101410.50
2022-10-22T16:04:16.703Z,101342.97
2022-10-22T16:09:12.049Z,101417.53
2022-10-22T16:14:06.555Z,101384.03
2022-10-22T16:19:01.596Z,101366.25
2022-10-22T16:23:55.314Z,101409.09
2022-10-22T16:28:49.591Z,101417.19
2022-10-22T16:33:46.499Z,101386.94
2022-10-22T16:38:44.706Z,101369.91
2022-10-22T16:43:37.877Z,101423.84
2022-10-22T16:48:32.034Z,101416.69
2022-10-22T16:53:25.431Z,101424.63
2022-10-22T16:58:20.079Z,101416.75
2022-10-22T17:03:13.421Z,101423.97
2022-10-22T17:08:06.826Z,101334.56
2022-10-22T17:13:00.089Z,101398.53
2022-10-22T17:17:54.661Z,101414.28
2022-10-22T17:22:49.526Z,101404.97
2022-10-22T17:27:43.795Z,101432.94
2022-10-22T17:32:38.489Z,101397.44
2022-10-22T17:37:33.217Z,101429.41
2022-10-22T17:42:26.684Z,101439.56
2022-10-22T17:47:19.978Z,101425.41
2022-10-22T17:52:14.531Z,101367.34
2022-10-22T17:57:09.338Z,101390.63
2022-10-22T18:02:03.219Z,101415.59
2022-10-22T18:06:57.124Z,101370.94
2022-10-22T18:11:52.039Z,101414.16
2022-10-22T18:16:47.159Z,101418.09
2022-10-22T18:21:40.641Z,101416.78
2022-10-22T18:26:33.789Z,101414.63
2022-10-22T18:31:28.496Z,101389.78
2022-10-22T18:36:24.711Z,101359.72
2022-10-22T18:41:17.927Z,101397.44
2022-10-22T18:46:11.339Z,101367.06
2022-10-22T18:51:07.251Z,101404.16
2022-10-22T18:56:01.850Z,101422.09
2022-10-22T19:00:55.095Z,101428.44
2022-10-22T19:05:50.479Z,101415.66
2022-10-22T19:10:44.166Z,101404.03
2022-10-22T19:15:38.775Z,101387.53
2022-10-22T19:20:32.090Z,101368.59
2022-10-22T19:25:25.588Z,101404.22
2022-10-22T19:30:20.401Z,101389.97
2022-10-22T19:35:14.890Z,101374.28
2022-10-22T19:40:09.768Z,101360.88
2022-10-22T19:45:03.158Z,101346.75
2022-10-22T19:49:56.270Z,101373.66
2022-10-22T19:54:51.195Z,101292.47
2022-10-22T19:59:44.603Z,101377.75
2022-10-22T20:04:37.800Z,101374.81
2022-10-22T20:09:31.008Z,101376.00
2022-10-22T20:14:25.618Z,101408.78
2022-10-22T20:19:19.203Z,101407.00
2022-10-22T20:24:12.783Z,101317.88
2022-10-22T20:29:05.947Z,101390.47
2022-10-22T20:34:02.280Z,101335.84
2022-10-22T20:39:00.650Z,101383.16
2022-10-22T20:43:53.917Z,101398.34
2022-10-22T20:48:47.319Z,101383.16
2022-10-22T20:53:41.817Z,101382.75
2022-10-22T20:58:35.029Z,101370.06
2022-10-22T21:03:28.348Z,101355.94
2022-10-22T21:08:24.703Z,101349.44
2022-10-22T21:13:19.620Z,101326.94
2022-10-22T21:18:13.854Z,101377.09
2022-10-22T21:23:07.214Z,101369.31
2022-10-22T21:28:00.474Z,101316.78
2022-10-22T21:32:56.913Z,101329.47
2022-10-22T21:37:50.127Z,101301.97
2022-10-22T21:42:43.807Z,101341.91
2022-10-22T21:47:37.023Z,101294.50
2022-10-22T21:52:31.557Z,101339.31
2022-10-22T21:57:24.653Z,101351.53
2022-10-22T22:02:17.770Z,101356.13
2022-10-22T22:07:10.893Z,101348.69
2022-10-22T22:12:07.744Z,101354.63
2022-10-22T22:17:00.853Z,101352.53
2022-10-22T22:21:55.940Z,101332.34
2022-10-22T22:26:49.443Z,101308.75
2022-10-22T22:31:46.030Z,101277.53
2022-10-22T22:36:41.694Z,101338.03
2022-10-22T22:41:34.915Z,101307.72
2022-10-22T22:46:28.141Z,101327.75
2022-10-22T22:51:22.792Z,101307.72
2022-10-22T22:56:19.197Z,101293.78
2022-10-22T23:01:16.009Z,101291.91
2022-10-22T23:06:09.930Z,101272.13
2022-10-22T23:11:06.505Z,101308.72
2022-10-22T23:15:59.590Z,101300.25
2022-10-22T23:20:53.464Z,101271.97
2022-10-22T23:25:49.051Z,101292.16
2022-10-22T23:30:45.650Z,101273.28
2022-10-22T23:35:41.611Z,101300.19
2022-10-22T23:40:34.766Z,101289.75
2022-10-22T23:45:28.004Z,101282.78
2022-10-22T23:50:22.508Z,101294.81
2022-10-22T23:55:15.813Z,101309.03
